Time;durP1;ratioP1;P1;durP2;ratioP2;P2;SDS_P1;SDS_P2;PMS_P1;PMS_P2;Temp;Humidity;BMP_temperature;BMP_pressure;BME280_temperature;BME280_humidity;BME280_pressure;Samples;Min_cycle;Max_cycle;Signal;HPM_P1;HPM_P2
2021/08/01 00:00:47;;;;;;;14.38;11.30;;;15.60;91.70;;;;;;5114436;28;20456;-79
2021/08/01 00:03:13;;;;;;;16.75;11.63;;;15.60;91.70;;;;;;5113697;28;20425;-79
2021/08/01 00:05:38;;;;;;;17.33;13.02;;;15.60;91.70;;;;;;5113919;28;20406;-79
2021/08/01 00:08:04;;;;;;;17.05;12.60;;;15.60;91.70;;;;;;5114580;28;20038;-79
2021/08/01 00:10:30;;;;;;;14.07;11.80;;;15.60;91.70;;;;;;5114057;28;20478;-79
2021/08/01 00:12:56;;;;;;;14.68;11.80;;;15.50;91.70;;;;;;5114345;28;20034;-79
2021/08/01 00:15:22;;;;;;;16.13;12.07;;;15.50;91.70;;;;;;5113938;28;20042;-79
2021/08/01 00:17:48;;;;;;;16.67;12.65;;;15.60;91.70;;;;;;5113607;28;20067;-78
2021/08/01 00:20:14;;;;;;;15.90;12.57;;;15.50;91.60;;;;;;5114525;28;20087;-78
2021/08/01 00:22:39;;;;;;;17.38;13.18;;;15.50;91.70;;;;;;5118333;28;20023;-79
2021/08/01 00:25:05;;;;;;;17.98;13.18;;;15.50;91.70;;;;;;5121120;28;20027;-79
2021/08/01 00:27:35;;;;;;;23.45;13.73;;;15.50;91.70;;;;;;5115667;28;20027;-79
2021/08/01 00:30:01;;;;;;;16.92;13.68;;;15.50;91.60;;;;;;5114370;28;20526;-80
2021/08/01 00:32:27;;;;;;;16.55;13.40;;;15.50;91.70;;;;;;5111359;28;20122;-79
2021/08/01 00:34:52;;;;;;;18.83;13.68;;;15.40;91.60;;;;;;5112434;28;20126;-80
2021/08/01 00:37:18;;;;;;;18.38;13.80;;;15.50;91.70;;;;;;5113616;28;20102;-79
2021/08/01 00:39:43;;;;;;;18.75;14.38;;;15.40;91.70;;;;;;5113685;28;20027;-78
2021/08/01 00:42:10;;;;;;;19.63;14.52;;;15.40;91.70;;;;;;5113972;28;20012;-80
2021/08/01 00:44:36;;;;;;;17.98;13.68;;;15.40;91.80;;;;;;5114152;28;20463;-79
2021/08/01 00:47:03;;;;;;;18.70;15.55;;;15.40;91.80;;;;;;5112833;28;20034;-79
2021/08/01 00:49:29;;;;;;;19.63;14.05;;;15.40;91.80;;;;;;5111121;28;20026;-79
2021/08/01 00:51:55;;;;;;;17.83;14.13;;;15.40;91.80;;;;;;5114490;28;20028;-79
2021/08/01 00:54:27;;;;;;;18.40;14.73;;;15.30;91.80;;;;;;5113382;28;20462;-78
2021/08/01 00:56:53;;;;;;;19.42;14.27;;;15.30;91.80;;;;;;5111265;28;20024;-80
2021/08/01 00:59:19;;;;;;;18.48;13.75;;;15.30;91.80;;;;;;5111934;28;20106;-80
2021/08/01 01:02:20;;;;;;;19.65;14.88;;;15.30;91.80;;;;;;5113282;28;20016;-80
2021/08/01 01:05:02;;;;;;;20.30;15.32;;;15.30;91.80;;;;;;5107191;28;20027;-81
2021/08/01 01:07:37;;;;;;;22.27;16.33;;;15.30;91.80;;;;;;5112425;28;20104;-79
2021/08/01 01:10:11;;;;;;;18.30;15.25;;;15.30;91.90;;;;;;5113054;28;20023;-79
2021/08/01 01:12:45;;;;;;;20.58;15.30;;;15.30;91.90;;;;;;5124569;28;20068;-80
2021/08/01 01:15:18;;;;;;;20.27;15.38;;;15.30;91.90;;;;;;5129484;28;20016;-79
2021/08/01 01:17:48;;;;;;;17.95;14.43;;;15.30;92.00;;;;;;5128372;28;20027;-78
2021/08/01 01:20:23;;;;;;;;;;;15.30;92.00;;;;;;5114381;28;20047;-78
2021/08/01 01:23:12;;;;;;;20.98;16.65;;;15.30;92.00;;;;;;5109394;28;19903;-80
2021/08/01 01:25:56;;;;;;;17.40;12.82;;;15.30;92.00;;;;;;5110221;28;20019;-79
2021/08/01 01:28:37;;;;;;;25.83;15.77;;;15.20;92.00;;;;;;5109966;28;20481;-78
2021/08/01 01:31:42;;;;;;;20.02;15.50;;;15.20;92.00;;;;;;5109926;28;20057;-79
2021/08/01 01:34:17;;;;;;;18.40;13.70;;;15.30;92.00;;;;;;5119277;27;20589;-81
2021/08/01 01:36:46;;;;;;;20.67;15.40;;;15.20;92.00;;;;;;5111905;28;20019;-80
2021/08/01 01:39:13;;;;;;;18.92;15.35;;;15.20;92.00;;;;;;5109346;28;20016;-80
2021/08/01 01:41:42;;;;;;;21.90;16.85;;;15.20;92.00;;;;;;5112085;28;20110;-80
2021/08/01 01:44:09;;;;;;;20.60;15.88;;;15.20;92.00;;;;;;5113807;28;20055;-83
2021/08/01 01:46:36;;;;;;;20.15;15.27;;;15.20;91.90;;;;;;5129983;28;20087;-79
2021/08/01 01:49:04;;;;;;;18.55;14.40;;;15.20;91.90;;;;;;5113767;28;20031;-79
2021/08/01 01:51:32;;;;;;;18.48;14.82;;;15.20;91.90;;;;;;5111956;28;20020;-79
2021/08/01 01:53:58;;;;;;;23.73;16.23;;;15.10;91.80;;;;;;5111557;28;20092;-80
2021/08/01 01:56:25;;;;;;;23.23;16.20;;;15.10;91.90;;;;;;5111230;28;20027;-79
2021/08/01 01:58:52;;;;;;;19.48;14.32;;;15.10;91.90;;;;;;5111813;28;20020;-79
2021/08/01 02:01:17;;;;;;;18.92;13.48;;;15.20;92.00;;;;;;5112544;28;20110;-80
2021/08/01 02:03:43;;;;;;;22.08;16.58;;;15.10;92.00;;;;;;5114217;28;20108;-79
2021/08/01 02:06:09;;;;;;;23.80;16.88;;;15.10;92.00;;;;;;5116705;28;20077;-80
2021/08/01 02:08:59;;;;;;;19.83;13.77;;;15.20;92.10;;;;;;5118249;27;20027;-79
2021/08/01 02:11:29;;;;;;;;;;;15.10;92.00;;;;;;5118531;28;20459;-80
2021/08/01 02:14:14;;;;;;;19.77;15.02;;;15.10;92.00;;;;;;5115891;28;19904;-79
2021/08/01 02:16:44;;;;;;;20.85;16.05;;;15.10;92.00;;;;;;5116021;28;20483;-79
2021/08/01 02:19:11;;;;;;;24.10;17.50;;;15.10;92.10;;;;;;5116173;28;20375;-80
2021/08/01 02:21:39;;;;;;;24.52;16.73;;;15.00;92.00;;;;;;5116416;28;20476;-80
2021/08/01 02:24:07;;;;;;;22.75;17.80;;;15.00;92.00;;;;;;5116782;28;20028;-79
2021/08/01 02:26:35;;;;;;;20.77;16.63;;;15.00;92.10;;;;;;5116278;28;20023;-78
2021/08/01 02:29:01;;;;;;;22.58;16.13;;;15.00;92.10;;;;;;5117301;28;20098;-79
2021/08/01 02:31:27;;;;;;;23.40;17.60;;;15.00;92.10;;;;;;5117155;28;20027;-80
2021/08/01 02:33:54;;;;;;;23.40;17.90;;;15.00;92.10;;;;;;5115798;28;20030;-78
2021/08/01 02:36:20;;;;;;;22.65;17.48;;;14.90;92.10;;;;;;5115120;28;20328;-79
2021/08/01 02:38:50;;;;;;;23.85;18.55;;;14.90;92.20;;;;;;5115234;28;20016;-79
2021/08/01 02:41:26;;;;;;;28.33;19.70;;;14.90;92.30;;;;;;5115194;28;20456;-81
2021/08/01 02:43:52;;;;;;;24.65;18.15;;;14.90;92.40;;;;;;5112354;28;20022;-80
2021/08/01 02:46:29;;;;;;;22.77;17.60;;;15.00;92.40;;;;;;5115789;28;20463;-80
2021/08/01 02:48:59;;;;;;;26.30;19.05;;;14.90;92.50;;;;;;5112344;28;20016;-79
2021/08/01 02:51:30;;;;;;;26.75;20.05;;;15.00;92.50;;;;;;5115247;28;20016;-79
2021/08/01 02:53:56;;;;;;;19.02;15.27;;;15.00;92.60;;;;;;5114723;28;20024;-80
2021/08/01 02:56:24;;;;;;;24.90;17.95;;;15.00;92.60;;;;;;5118931;28;20019;-80
2021/08/01 02:58:51;;;;;;;24.92;19.25;;;15.00;92.70;;;;;;5109861;28;20019;-80
2021/08/01 03:01:17;;;;;;;24.88;18.17;;;15.10;92.70;;;;;;5123052;28;20019;-79
2021/08/01 03:03:43;;;;;;;23.50;19.30;;;15.10;93.00;;;;;;5132265;28;20049;-81
2021/08/01 03:06:10;;;;;;;30.52;22.30;;;15.10;92.80;;;;;;5134045;28;20214;-81
2021/08/01 03:08:36;;;;;;;21.65;18.30;;;15.10;92.70;;;;;;5126376;28;20030;-80
2021/08/01 03:11:02;;;;;;;24.65;20.23;;;15.10;92.70;;;;;;5116500;28;20066;-80
2021/08/01 03:13:30;;;;;;;22.50;18.95;;;15.10;92.70;;;;;;5106406;28;20477;-78
2021/08/01 03:15:56;;;;;;;24.58;19.35;;;15.20;92.80;;;;;;5113757;28;20043;-80
2021/08/01 03:18:22;;;;;;;23.15;18.95;;;15.10;92.80;;;;;;5114041;28;20019;-80
2021/08/01 03:20:50;;;;;;;22.63;18.02;;;15.20;92.80;;;;;;5113269;28;20047;-79
2021/08/01 03:23:15;;;;;;;23.25;18.20;;;15.20;92.80;;;;;;5113215;28;20015;-80
2021/08/01 03:25:41;;;;;;;25.25;20.77;;;15.30;92.90;;;;;;5114674;28;20016;-80
2021/08/01 03:28:07;;;;;;;27.65;21.88;;;15.30;92.90;;;;;;5114404;28;20653;-80
2021/08/01 03:30:33;;;;;;;23.80;18.58;;;15.30;92.80;;;;;;5113662;28;20030;-81
2021/08/01 03:32:59;;;;;;;23.55;18.40;;;15.30;92.90;;;;;;5113936;28;20055;-80
2021/08/01 03:35:25;;;;;;;26.73;20.23;;;15.30;92.90;;;;;;5113378;28;20489;-79
2021/08/01 03:37:50;;;;;;;24.90;20.30;;;15.20;92.90;;;;;;5114036;28;20118;-80
2021/08/01 03:40:16;;;;;;;26.70;21.05;;;15.30;92.90;;;;;;5113636;28;20119;-79
2021/08/01 03:42:42;;;;;;;23.08;18.75;;;15.30;92.90;;;;;;5113189;28;20558;-79
2021/08/01 03:45:10;;;;;;;26.95;20.58;;;15.30;92.90;;;;;;5111294;28;20039;-79
2021/08/01 03:47:46;;;;;;;24.88;20.75;;;15.40;93.00;;;;;;5117811;28;20024;-79
2021/08/01 03:50:12;;;;;;;25.63;19.15;;;15.40;93.00;;;;;;5122498;28;20083;-79
2021/08/01 03:52:40;;;;;;;26.35;20.40;;;15.40;92.90;;;;;;5124545;28;20050;-79
2021/08/01 03:55:06;;;;;;;30.27;22.05;;;15.40;92.90;;;;;;5113082;28;20020;-79
2021/08/01 03:57:32;;;;;;;28.33;21.90;;;15.40;92.90;;;;;;5112537;28;20120;-80
2021/08/01 04:00:01;;;;;;;23.98;19.67;;;15.40;93.00;;;;;;5113749;28;20486;-81
2021/08/01 04:02:26;;;;;;;26.95;19.35;;;15.40;93.00;;;;;;5112734;28;20043;-80
2021/08/01 04:04:53;;;;;;;32.30;23.60;;;15.40;93.00;;;;;;5113232;28;20544;-80
2021/08/01 04:07:19;;;;;;;27.45;21.90;;;15.40;93.00;;;;;;5114086;28;20022;-79
2021/08/01 04:09:44;;;;;;;25.05;19.98;;;15.40;93.00;;;;;;5113286;28;20015;-79
2021/08/01 04:12:10;;;;;;;20.52;17.25;;;15.40;93.00;;;;;;5112494;28;20440;-79
2021/08/01 04:14:35;;;;;;;24.08;18.77;;;15.40;93.10;;;;;;5115304;28;20030;-79
2021/08/01 04:17:01;;;;;;;27.17;20.95;;;15.50;93.10;;;;;;5114613;28;20081;-79
2021/08/01 04:19:27;;;;;;;26.77;20.25;;;15.50;93.10;;;;;;5114128;28;20023;-79
2021/08/01 04:21:52;;;;;;;25.75;20.17;;;15.50;93.10;;;;;;5113711;28;20122;-79
2021/08/01 04:24:18;;;;;;;25.35;19.98;;;15.60;93.10;;;;;;5113662;28;20045;-79
2021/08/01 04:26:43;;;;;;;23.52;17.98;;;15.60;93.40;;;;;;5113544;28;20509;-79
2021/08/01 04:29:09;;;;;;;20.08;14.25;;;15.50;93.00;;;;;;5114570;28;20046;-79
2021/08/01 04:31:35;;;;;;;21.08;16.10;;;15.60;92.90;;;;;;5113286;28;20181;-79
2021/08/01 04:34:00;;;;;;;21.60;16.67;;;15.50;92.90;;;;;;5116911;28;20073;-79
2021/08/01 04:36:26;;;;;;;28.92;21.88;;;15.60;92.80;;;;;;5117861;28;20418;-79
2021/08/01 04:38:52;;;;;;;23.95;20.23;;;15.60;92.90;;;;;;5112834;28;20495;-79
2021/08/01 04:41:17;;;;;;;25.77;19.65;;;15.60;92.90;;;;;;5113064;28;20016;-79
2021/08/01 04:43:43;;;;;;;23.20;18.52;;;15.60;93.00;;;;;;5113523;28;20055;-78
2021/08/01 04:46:09;;;;;;;28.10;21.48;;;15.60;92.90;;;;;;5114207;28;20016;-78
2021/08/01 04:48:34;;;;;;;28.02;19.98;;;15.60;93.00;;;;;;5113887;28;20061;-78
2021/08/01 04:51:00;;;;;;;28.33;20.60;;;15.60;92.90;;;;;;5118096;28;20433;-78
2021/08/01 04:53:25;;;;;;;28.27;21.20;;;15.60;93.00;;;;;;5130133;28;20011;-79
2021/08/01 04:55:51;;;;;;;23.92;18.92;;;15.70;93.10;;;;;;5134680;28;20024;-79
2021/08/01 04:58:17;;;;;;;23.88;19.15;;;15.70;93.00;;;;;;5125281;28;20494;-79
2021/08/01 05:00:42;;;;;;;25.02;17.83;;;15.70;93.00;;;;;;5113751;28;20020;-79
2021/08/01 05:03:08;;;;;;;23.92;18.48;;;15.70;93.00;;;;;;5112635;28;20081;-79
2021/08/01 05:05:38;;;;;;;27.17;21.08;;;15.70;93.00;;;;;;5113685;28;20352;-79
2021/08/01 05:08:04;;;;;;;30.70;20.13;;;15.70;93.00;;;;;;5114501;28;20016;-80
2021/08/01 05:10:30;;;;;;;22.80;17.92;;;15.80;93.00;;;;;;5112795;28;20201;-80
2021/08/01 05:12:57;;;;;;;25.60;17.08;;;15.80;93.00;;;;;;5112588;28;20031;-80
2021/08/01 05:15:22;;;;;;;26.83;19.35;;;15.80;92.90;;;;;;5112807;28;20034;-79
2021/08/01 05:17:48;;;;;;;23.80;16.75;;;15.70;92.90;;;;;;5110924;28;20023;-78
2021/08/01 05:20:15;;;;;;;31.73;20.20;;;15.80;92.70;;;;;;5111057;28;20177;-80
2021/08/01 05:22:41;;;;;;;31.15;20.30;;;15.80;92.70;;;;;;5108945;28;20012;-81
2021/08/01 05:25:07;;;;;;;25.17;18.05;;;15.80;92.80;;;;;;5112694;28;20004;-82
2021/08/01 05:27:33;;;;;;;23.13;15.95;;;15.80;92.80;;;;;;5112639;28;20024;-81
2021/08/01 05:29:58;;;;;;;27.63;20.35;;;15.80;92.60;;;;;;5111260;28;20028;-80
2021/08/01 05:32:24;;;;;;;32.42;21.65;;;15.80;92.60;;;;;;5111327;28;20080;-80
2021/08/01 05:34:51;;;;;;;23.92;18.85;;;15.80;92.70;;;;;;5111845;28;20019;-81
2021/08/01 05:37:16;;;;;;;35.22;23.25;;;15.90;92.60;;;;;;5111449;28;20030;-82
2021/08/01 05:39:42;;;;;;;35.25;23.23;;;15.90;92.60;;;;;;5111283;28;20024;-81
2021/08/01 05:42:11;;;;;;;30.38;22.08;;;15.80;92.50;;;;;;5112657;28;20034;-81
2021/08/01 05:44:36;;;;;;;34.20;22.05;;;15.90;92.60;;;;;;5112786;28;20024;-82
2021/08/01 05:47:07;;;;;;;26.92;19.63;;;15.90;92.50;;;;;;5117708;28;20114;-81
2021/08/01 05:49:33;;;;;;;29.42;22.85;;;16.00;92.50;;;;;;5116495;28;20409;-81
2021/08/01 05:51:59;;;;;;;32.10;23.42;;;15.90;92.60;;;;;;5116884;28;20027;-81
2021/08/01 05:54:25;;;;;;;36.47;25.75;;;16.00;92.60;;;;;;5128003;28;20302;-80
2021/08/01 05:56:51;;;;;;;37.17;25.38;;;16.00;92.60;;;;;;5126852;28;20019;-81
2021/08/01 05:59:16;;;;;;;47.85;29.75;;;16.00;92.60;;;;;;5112105;28;20547;-81
2021/08/01 06:01:42;;;;;;;39.67;28.08;;;16.00;92.90;;;;;;5112502;28;20417;-80
2021/08/01 06:04:07;;;;;;;37.90;26.02;;;16.00;92.60;;;;;;5113259;28;20027;-81
2021/08/01 06:06:33;;;;;;;47.60;28.77;;;16.00;92.60;;;;;;5112805;28;20032;-79
2021/08/01 06:08:58;;;;;;;48.47;29.25;;;16.00;92.50;;;;;;5112327;28;20046;-81
2021/08/01 06:11:24;;;;;;;48.85;30.70;;;16.00;92.50;;;;;;5114662;28;20024;-81
2021/08/01 06:13:50;;;;;;;50.47;30.70;;;16.00;92.60;;;;;;5120235;28;20114;-80
2021/08/01 06:16:17;;;;;;;47.42;29.35;;;16.00;92.60;;;;;;5113638;28;20468;-81
2021/08/01 06:18:43;;;;;;;47.72;32.50;;;16.00;92.60;;;;;;5107555;28;20030;-81
2021/08/01 06:21:17;;;;;;;48.78;30.60;;;16.00;92.70;;;;;;5110800;28;20016;-80
2021/08/01 06:23:45;;;;;;;46.05;29.02;;;16.00;92.80;;;;;;5108503;28;20106;-81
2021/08/01 06:26:11;;;;;;;45.72;32.17;;;16.00;92.90;;;;;;5111481;28;20016;-80
2021/08/01 06:28:38;;;;;;;54.25;33.88;;;16.10;92.90;;;;;;5110165;28;20016;-81
2021/08/01 06:31:05;;;;;;;49.70;31.90;;;16.10;92.80;;;;;;5108101;28;20016;-81
2021/08/01 06:33:31;;;;;;;46.65;28.52;;;16.10;92.80;;;;;;5109658;28;20429;-80
2021/08/01 06:35:57;;;;;;;49.05;32.03;;;16.10;92.70;;;;;;5110185;28;20476;-80
2021/08/01 06:38:23;;;;;;;39.20;27.42;;;16.10;92.70;;;;;;5110690;28;20026;-86
2021/08/01 06:40:52;;;;;;;48.88;33.40;;;16.10;93.10;;;;;;5121745;28;20028;-83
2021/08/01 06:43:18;;;;;;;50.42;32.47;;;16.10;92.60;;;;;;5129650;28;20012;-83
2021/08/01 06:45:43;;;;;;;58.65;33.85;;;16.10;92.80;;;;;;5133017;28;20031;-84
2021/08/01 06:48:09;;;;;;;41.17;28.02;;;16.10;92.90;;;;;;5128758;28;20035;-84
2021/08/01 06:50:36;;;;;;;48.75;30.33;;;16.10;92.60;;;;;;5112443;28;20495;-82
2021/08/01 06:53:02;;;;;;;48.85;31.60;;;16.10;92.70;;;;;;5116031;28;20053;-81
2021/08/01 06:55:27;;;;;;;44.42;29.70;;;16.10;92.70;;;;;;5115533;28;20044;-80
2021/08/01 06:57:53;;;;;;;39.70;24.48;;;16.10;92.60;;;;;;5116599;28;20486;-81
2021/08/01 07:00:22;;;;;;;35.58;23.15;;;16.10;92.10;;;;;;5115327;28;20085;-81
2021/08/01 07:02:55;;;;;;;44.15;28.42;;;16.20;92.20;;;;;;5115467;28;20376;-82
2021/08/01 07:05:21;;;;;;;41.78;26.42;;;16.20;92.30;;;;;;5115800;28;20024;-82
2021/08/01 07:07:47;;;;;;;47.28;31.42;;;16.30;92.40;;;;;;5115994;28;20068;-81
2021/08/01 07:10:13;;;;;;;41.17;24.25;;;16.30;92.10;;;;;;5115628;28;20073;-81
2021/08/01 07:12:41;;;;;;;48.20;29.75;;;16.30;91.40;;;;;;5115157;28;20027;-81
2021/08/01 07:15:18;;;;;;;42.88;28.13;;;16.30;91.70;;;;;;5115556;28;20479;-82
2021/08/01 07:17:44;;;;;;;54.15;30.58;;;16.20;92.00;;;;;;5115205;28;20161;-82
2021/08/01 07:20:12;;;;;;;46.97;28.98;;;16.30;92.20;;;;;;5115787;28;20047;-81
2021/08/01 07:22:41;;;;;;;52.47;29.13;;;16.30;92.30;;;;;;5115897;28;20110;-81
2021/08/01 07:25:08;;;;;;;54.60;31.63;;;16.30;92.20;;;;;;5115272;28;20024;-82
2021/08/01 07:27:34;;;;;;;56.38;31.70;;;16.20;92.20;;;;;;5115324;28;20031;-82
2021/08/01 07:30:01;;;;;;;48.17;28.98;;;16.20;92.40;;;;;;5116468;28;20502;-82
2021/08/01 07:32:26;;;;;;;53.30;31.70;;;16.20;92.20;;;;;;5114391;28;20075;-83
2021/08/01 07:34:52;;;;;;;65.63;36.22;;;16.20;92.40;;;;;;5115727;28;20028;-82
2021/08/01 07:37:18;;;;;;;51.75;30.83;;;16.20;92.60;;;;;;5115502;28;20015;-83
2021/08/01 07:39:45;;;;;;;48.35;30.80;;;16.10;92.60;;;;;;5117565;28;20499;-82
2021/08/01 07:42:10;;;;;;;50.25;31.40;;;16.10;92.80;;;;;;5115867;28;20057;-82
2021/08/01 07:44:47;;;;;;;47.30;27.30;;;16.10;92.90;;;;;;5115639;28;20479;-82
2021/08/01 07:47:13;;;;;;;53.20;31.52;;;16.10;92.70;;;;;;5116253;28;20407;-82
2021/08/01 07:49:39;;;;;;;54.20;32.08;;;16.10;92.80;;;;;;5116790;28;20019;-83
2021/08/01 07:52:10;;;;;;;46.55;28.33;;;16.10;92.90;;;;;;5124364;28;20035;-82
2021/08/01 07:54:36;;;;;;;51.42;32.47;;;16.10;92.60;;;;;;5118202;28;20016;-82
2021/08/01 07:57:02;;;;;;;50.72;30.42;;;16.10;92.60;;;;;;5116075;28;20026;-82
2021/08/01 07:59:28;;;;;;;58.55;32.45;;;16.20;92.70;;;;;;5127067;28;20000;-81
2021/08/01 08:01:54;;;;;;;50.65;32.53;;;16.20;92.70;;;;;;5120230;28;20063;-81
2021/08/01 08:04:19;;;;;;;54.28;30.02;;;16.30;92.60;;;;;;5116758;28;20074;-82
2021/08/01 08:06:45;;;;;;;61.97;36.20;;;16.30;92.50;;;;;;5114341;28;20024;-82
2021/08/01 08:09:10;;;;;;;56.97;30.75;;;16.30;92.30;;;;;;5115316;28;20024;-82
2021/08/01 08:11:36;;;;;;;61.28;35.20;;;16.30;92.10;;;;;;5113638;28;20054;-82
2021/08/01 08:14:01;;;;;;;66.82;36.03;;;16.30;91.90;;;;;;5114947;28;20024;-79
2021/08/01 08:16:27;;;;;;;64.57;36.92;;;16.30;92.00;;;;;;5114466;28;20525;-82
2021/08/01 08:18:53;;;;;;;64.55;37.63;;;16.30;92.10;;;;;;5115011;28;20027;-82
2021/08/01 08:21:19;;;;;;;66.25;36.22;;;16.40;92.10;;;;;;5114901;28;20357;-81
2021/08/01 08:23:45;;;;;;;62.78;34.67;;;16.40;92.20;;;;;;5113374;28;20111;-77
2021/08/01 08:26:10;;;;;;;74.63;39.92;;;16.50;91.90;;;;;;5114215;28;20028;-79
2021/08/01 08:28:36;;;;;;;69.72;37.88;;;16.40;92.00;;;;;;5120305;28;20011;-79
2021/08/01 08:31:02;;;;;;;70.47;38.78;;;16.50;92.10;;;;;;5123129;28;20023;-78
2021/08/01 08:33:28;;;;;;;75.35;39.67;;;16.50;92.10;;;;;;5127972;28;20019;-77
2021/08/01 08:35:53;;;;;;;68.45;38.60;;;16.50;92.20;;;;;;5125392;28;20024;-77
2021/08/01 08:38:19;;;;;;;72.88;41.30;;;16.60;91.90;;;;;;5116412;28;20035;-78
2021/08/01 08:40:48;;;;;;;66.25;38.70;;;16.50;91.80;;;;;;5113069;28;20491;-78
2021/08/01 08:43:14;;;;;;;67.75;40.17;;;16.60;91.80;;;;;;5112590;28;20053;-77
2021/08/01 08:45:45;;;;;;;74.07;41.38;;;16.60;91.90;;;;;;5112389;28;20122;-79
2021/08/01 08:48:12;;;;;;;67.05;38.53;;;16.60;91.60;;;;;;5114122;27;20058;-77
2021/08/01 08:50:39;;;;;;;73.90;40.33;;;16.60;91.20;;;;;;5112597;28;20031;-77
2021/08/01 08:53:06;;;;;;;66.35;36.65;;;16.70;91.50;;;;;;5113031;28;20045;-79
2021/08/01 08:55:34;;;;;;;71.57;39.42;;;16.70;91.30;;;;;;5112303;28;20084;-76
2021/08/01 08:58:02;;;;;;;77.65;44.88;;;16.70;91.60;;;;;;5112270;28;20031;-77
2021/08/01 09:00:29;;;;;;;60.70;36.15;;;16.80;91.60;;;;;;5112806;28;20016;-77
2021/08/01 09:02:55;;;;;;;73.03;39.25;;;16.80;91.30;;;;;;5112503;28;20074;-76
2021/08/01 09:05:22;;;;;;;72.72;39.03;;;16.80;91.30;;;;;;5112626;28;20020;-77
2021/08/01 09:07:48;;;;;;;58.45;37.15;;;16.90;91.30;;;;;;5112480;28;20042;-78
2021/08/01 09:10:15;;;;;;;64.32;37.10;;;17.10;91.10;;;;;;5112375;28;20106;-77
2021/08/01 09:12:45;;;;;;;55.00;34.63;;;17.10;91.10;;;;;;5112778;28;20023;-82
2021/08/01 09:15:24;;;;;;;61.58;35.17;;;17.20;90.60;;;;;;5112429;28;20028;-78
2021/08/01 09:17:53;;;;;;;63.28;36.15;;;17.30;90.60;;;;;;5113161;28;20020;-79
2021/08/01 09:20:33;;;;;;;56.55;34.67;;;17.30;90.60;;;;;;5113816;28;20019;-82
2021/08/01 09:23:01;;;;;;;58.85;34.17;;;17.30;90.40;;;;;;5114918;28;20028;-80
2021/08/01 09:25:29;;;;;;;54.50;33.20;;;17.40;90.50;;;;;;5112702;28;20464;-78
2021/08/01 09:28:15;;;;;;;60.55;33.42;;;17.40;89.60;;;;;;5113056;28;20371;-78
2021/08/01 09:30:47;;;;;;;64.82;36.15;;;17.40;90.00;;;;;;5115595;28;20051;-78
2021/08/01 09:33:18;;;;;;;67.70;38.17;;;17.40;90.10;;;;;;5114754;28;20130;-78
2021/08/01 09:35:44;;;;;;;61.55;36.08;;;17.40;90.20;;;;;;5112615;28;20391;-78
2021/08/01 09:38:10;;;;;;;62.65;35.08;;;17.40;90.10;;;;;;5114888;28;20027;-78
2021/08/01 09:40:36;;;;;;;58.65;34.97;;;17.50;90.10;;;;;;5114198;28;20098;-78
2021/08/01 09:43:12;;;;;;;57.47;35.03;;;17.60;90.00;;;;;;5112056;28;20024;-78
2021/08/01 09:45:39;;;;;;;45.65;27.33;;;17.80;90.20;;;;;;5112134;28;20380;-77
2021/08/01 09:48:16;;;;;;;55.92;34.88;;;18.20;87.70;;;;;;5112556;28;20024;-79
2021/08/01 09:51:05;;;;;;;57.90;34.10;;;18.50;87.60;;;;;;5112398;28;20022;-77
2021/08/01 09:53:32;;;;;;;59.20;34.07;;;18.70;86.40;;;;;;5113895;28;20020;-77
2021/08/01 09:56:12;;;;;;;56.50;33.17;;;18.70;84.60;;;;;;5112718;28;20038;-77
2021/08/01 09:58:38;;;;;;;39.53;24.98;;;18.80;83.40;;;;;;5113269;28;20023;-77
2021/08/01 10:01:04;;;;;;;51.05;30.58;;;19.00;82.70;;;;;;5112476;28;20019;-77
2021/08/01 10:03:38;;;;;;;32.75;20.85;;;19.00;83.00;;;;;;5117689;28;20020;-77
2021/08/01 10:06:11;;;;;;;42.42;28.55;;;19.00;81.50;;;;;;5129393;28;20016;-78
2021/08/01 10:08:38;;;;;;;39.40;24.88;;;19.30;82.60;;;;;;5113621;28;20024;-78
2021/08/01 10:11:09;;;;;;;37.17;24.27;;;19.50;81.30;;;;;;5111605;28;20023;-77
2021/08/01 10:13:36;;;;;;;25.35;16.40;;;19.70;79.40;;;;;;5112706;28;20484;-77
2021/08/01 10:16:01;;;;;;;33.55;22.35;;;19.80;77.40;;;;;;5110888;28;20045;-77
2021/08/01 10:18:28;;;;;;;35.33;23.60;;;19.70;78.20;;;;;;5111780;28;20016;-78
2021/08/01 10:20:54;;;;;;;38.58;25.98;;;19.70;79.70;;;;;;5116044;28;20027;-77
2021/08/01 10:23:20;;;;;;;35.65;22.02;;;19.80;79.70;;;;;;5127610;28;20031;-78
2021/08/01 10:25:47;;;;;;;28.90;19.83;;;20.10;77.90;;;;;;5128055;28;20554;-78
2021/08/01 10:28:17;;;;;;;34.75;22.30;;;20.00;77.20;;;;;;5120136;28;20028;-78
2021/08/01 10:30:45;;;;;;;38.47;25.73;;;19.90;78.30;;;;;;5117011;28;20590;-79
2021/08/01 10:33:13;;;;;;;36.38;24.88;;;19.80;79.00;;;;;;5115295;28;20036;-79
2021/08/01 10:35:46;;;;;;;39.30;24.50;;;19.80;79.60;;;;;;5117452;27;20035;-78
2021/08/01 10:38:14;;;;;;;30.80;21.35;;;19.80;79.20;;;;;;5117717;28;20020;-78
2021/08/01 10:40:40;;;;;;;31.50;20.83;;;19.70;79.70;;;;;;5115872;28;20070;-79
2021/08/01 10:43:09;;;;;;;25.60;18.25;;;19.70;80.20;;;;;;5116315;28;20019;-79
2021/08/01 10:45:36;;;;;;;30.45;18.63;;;19.70;80.60;;;;;;5115436;28;20031;-78
2021/08/01 10:48:02;;;;;;;29.98;18.50;;;19.70;80.90;;;;;;5115595;28;20020;-78
2021/08/01 10:50:30;;;;;;;36.88;25.02;;;19.60;81.10;;;;;;5115298;28;20375;-79
2021/08/01 10:53:20;;;;;;;36.70;22.90;;;19.50;81.80;;;;;;5115602;28;20028;-78
2021/08/01 10:55:46;;;;;;;38.08;24.67;;;19.40;82.90;;;;;;5115358;28;20083;-79
2021/08/01 10:58:14;;;;;;;37.50;22.65;;;19.20;84.40;;;;;;5115272;28;20023;-76
2021/08/01 11:00:55;;;;;;;43.20;25.50;;;19.00;84.40;;;;;;5114849;28;20020;-77
2021/08/01 11:03:21;;;;;;;36.03;23.42;;;19.00;86.20;;;;;;5115257;28;20145;-77
2021/08/01 11:05:48;;;;;;;31.95;20.33;;;18.90;86.80;;;;;;5116652;27;20024;-78
2021/08/01 11:08:14;;;;;;;31.35;20.20;;;18.90;86.90;;;;;;5117294;28;20046;-78
2021/08/01 11:10:41;;;;;;;24.25;15.95;;;18.80;87.50;;;;;;5123121;28;20452;-78
2021/08/01 11:13:28;;;;;;;27.23;16.50;;;18.70;87.80;;;;;;5120855;28;20028;-78
2021/08/01 11:15:53;;;;;;;22.38;15.50;;;18.70;87.80;;;;;;5119239;28;20028;-77
2021/08/01 11:18:30;;;;;;;23.85;15.57;;;18.70;88.00;;;;;;5116724;27;20069;-77
2021/08/01 11:20:56;;;;;;;21.38;14.93;;;18.70;88.00;;;;;;5114748;28;20027;-79
2021/08/01 11:23:42;;;;;;;20.40;12.27;;;18.70;88.00;;;;;;5116653;28;20023;-78
2021/08/01 11:26:10;;;;;;;17.10;11.38;;;18.80;88.00;;;;;;5113903;28;20020;-79
2021/08/01 11:28:36;;;;;;;18.38;12.43;;;18.80;87.90;;;;;;5114322;28;20367;-78
2021/08/01 11:31:01;;;;;;;28.92;18.90;;;19.00;88.10;;;;;;5114574;28;20027;-79
2021/08/01 11:33:33;;;;;;;25.20;14.70;;;19.10;88.30;;;;;;5113806;28;20081;-78
2021/08/01 11:36:13;;;;;;;20.20;15.02;;;19.30;88.10;;;;;;5114917;28;20471;-78
2021/08/01 11:38:48;;;;;;;24.20;17.70;;;19.60;87.50;;;;;;5113807;28;20028;-79
2021/08/01 11:41:30;;;;;;;28.67;18.15;;;19.80;87.20;;;;;;5114789;28;20028;-79
2021/08/01 11:44:04;;;;;;;28.70;18.10;;;19.90;86.30;;;;;;5116421;28;20039;-78
2021/08/01 11:47:08;;;;;;;27.73;17.92;;;20.00;85.30;;;;;;5114552;28;20378;-77
2021/08/01 11:49:42;;;;;;;25.45;17.05;;;20.10;85.40;;;;;;5114095;28;20019;-77
2021/08/01 11:52:11;;;;;;;19.52;13.48;;;20.10;85.20;;;;;;5114525;28;20038;-78
2021/08/01 11:54:40;;;;;;;14.15;10.75;;;20.10;85.40;;;;;;5115339;28;20012;-78
2021/08/01 11:57:10;;;;;;;17.33;11.77;;;20.10;84.40;;;;;;5118040;28;20030;-77
2021/08/01 11:59:36;;;;;;;12.88;9.77;;;20.20;85.10;;;;;;5116447;28;20068;-78
2021/08/01 12:02:13;;;;;;;10.43;6.80;;;20.40;85.10;;;;;;5117837;27;20032;-78
2021/08/01 12:04:50;;;;;;;13.27;9.48;;;20.50;84.70;;;;;;5115640;28;20016;-78
2021/08/01 12:07:16;;;;;;;13.15;9.35;;;20.40;80.80;;;;;;5103187;28;20027;-78
2021/08/01 12:09:42;;;;;;;14.63;9.73;;;20.30;80.20;;;;;;5121945;28;20034;-79
2021/08/01 12:12:08;;;;;;;18.15;11.93;;;20.20;82.50;;;;;;5131716;28;20023;-76
2021/08/01 12:14:38;;;;;;;18.75;12.30;;;20.10;82.80;;;;;;5133865;28;20044;-77
2021/08/01 12:17:09;;;;;;;16.58;11.15;;;19.90;84.80;;;;;;5122808;28;20020;-78
2021/08/01 12:19:42;;;;;;;17.10;11.77;;;19.70;85.60;;;;;;5113846;28;20069;-79
2021/08/01 12:22:11;;;;;;;16.23;11.32;;;19.60;86.40;;;;;;5113536;28;20023;-78
2021/08/01 12:24:45;;;;;;;15.05;10.57;;;19.60;87.10;;;;;;5113381;28;20055;-77
2021/08/01 12:27:20;;;;;;;23.83;14.07;;;19.50;86.80;;;;;;5113268;28;20023;-77
2021/08/01 12:29:50;;;;;;;12.85;8.32;;;19.50;87.20;;;;;;5113509;28;20072;-78
2021/08/01 12:32:25;;;;;;;16.65;11.15;;;19.50;85.50;;;;;;5113139;28;20040;-80
2021/08/01 12:35:00;;;;;;;19.05;12.15;;;19.50;83.70;;;;;;5116359;28;20024;-78